Time;durP1;ratioP1;P1;durP2;ratioP2;P2;SDS_P1;SDS_P2;PMS_P1;PMS_P2;Temp;Humidity;BMP_temperature;BMP_pressure;BME280_temperature;BME280_humidity;BME280_pressure;Samples;Min_cycle;Max_cycle;Signal;HPM_P1;HPM_P2
2024/01/19 00:00:47;;;;;;;32.60;18.80;;;-0.70;99.90;;;;;;5094333;28;20646;-72
2024/01/19 00:03:12;;;;;;;30.90;19.03;;;-0.80;99.90;;;;;;5094023;28;20172;-72
2024/01/19 00:05:38;;;;;;;32.27;18.60;;;-0.80;99.90;;;;;;5094225;28;20183;-73
2024/01/19 00:08:04;;;;;;;37.40;21.10;;;-0.80;99.90;;;;;;5094236;28;20194;-72
2024/01/19 00:10:32;;;;;;;39.83;21.60;;;-0.80;99.90;;;;;;5093864;28;20175;-71
2024/01/19 00:12:58;;;;;;;39.20;21.33;;;-0.90;99.90;;;;;;5093758;28;20207;-72
2024/01/19 00:15:24;;;;;;;42.03;21.27;;;-0.90;99.90;;;;;;5093964;28;20183;-72
2024/01/19 00:17:49;;;;;;;34.47;21.80;;;-0.90;99.90;;;;;;5094027;28;20211;-73
2024/01/19 00:20:15;;;;;;;39.33;21.80;;;-0.80;99.90;;;;;;5093982;28;20176;-71
2024/01/19 00:22:40;;;;;;;36.37;21.27;;;-0.80;99.90;;;;;;5093805;28;20181;-71
2024/01/19 00:25:06;;;;;;;34.63;22.37;;;-0.80;99.90;;;;;;5093841;28;20590;-71
2024/01/19 00:27:32;;;;;;;34.70;20.37;;;-0.90;99.90;;;;;;5093539;28;20179;-71
2024/01/19 00:29:57;;;;;;;38.20;21.57;;;-0.80;99.90;;;;;;5093445;28;20276;-71
2024/01/19 00:32:23;;;;;;;36.43;20.70;;;-0.80;99.90;;;;;;5093641;28;20176;-71
2024/01/19 00:34:49;;;;;;;37.30;20.47;;;-0.90;99.90;;;;;;5093554;28;20631;-72
2024/01/19 00:37:15;;;;;;;35.20;19.40;;;-0.90;99.90;;;;;;5093429;28;20651;-71
2024/01/19 00:39:41;;;;;;;30.40;18.33;;;-0.90;99.90;;;;;;5093559;28;20178;-72
2024/01/19 00:42:06;;;;;;;34.13;19.37;;;-0.90;99.90;;;;;;5093130;28;20180;-71
2024/01/19 00:44:32;;;;;;;34.50;18.73;;;-0.90;99.90;;;;;;5093539;28;20172;-72
2024/01/19 00:46:58;;;;;;;33.00;18.97;;;-1.00;99.90;;;;;;5093419;28;20172;-72
2024/01/19 00:49:24;;;;;;;31.47;19.97;;;-0.90;99.90;;;;;;5093591;28;20183;-72
2024/01/19 00:51:50;;;;;;;33.70;20.00;;;-0.90;99.90;;;;;;5093296;28;20172;-72
2024/01/19 00:54:15;;;;;;;31.50;19.70;;;-0.90;99.90;;;;;;5093572;28;20175;-72
2024/01/19 00:56:41;;;;;;;35.47;19.03;;;-0.90;99.90;;;;;;5092968;28;20209;-72
2024/01/19 00:59:06;;;;;;;28.93;17.63;;;-0.90;99.90;;;;;;5093240;28;20188;-72
2024/01/19 01:01:32;;;;;;;30.43;18.70;;;-0.90;99.90;;;;;;5093245;28;20640;-72
2024/01/19 01:03:58;;;;;;;31.43;18.80;;;-0.90;99.90;;;;;;5093309;28;20527;-72
2024/01/19 01:06:24;;;;;;;34.90;20.07;;;-0.90;99.90;;;;;;5093199;28;20168;-72
2024/01/19 01:08:50;;;;;;;33.53;19.67;;;-0.90;99.90;;;;;;5093295;28;20179;-73
2024/01/19 01:11:16;;;;;;;36.40;19.40;;;-0.90;99.90;;;;;;5092797;28;20619;-72
2024/01/19 01:13:41;;;;;;;30.87;17.97;;;-0.90;99.90;;;;;;5093254;28;20174;-71
2024/01/19 01:16:07;;;;;;;31.83;18.47;;;-0.90;99.90;;;;;;5093196;28;20352;-71
2024/01/19 01:18:33;;;;;;;32.37;18.70;;;-1.00;99.90;;;;;;5093182;28;20634;-72
2024/01/19 01:20:58;;;;;;;27.33;17.03;;;-0.90;99.90;;;;;;5093099;28;20251;-72
2024/01/19 01:23:24;;;;;;;31.03;17.97;;;-0.80;99.90;;;;;;5092988;28;20172;-72
2024/01/19 01:25:50;;;;;;;27.03;17.57;;;-0.90;99.90;;;;;;5092795;28;20168;-72
2024/01/19 01:28:16;;;;;;;30.37;18.30;;;-0.90;99.90;;;;;;5095682;28;20172;-72
2024/01/19 01:30:41;;;;;;;30.57;19.13;;;-0.90;99.90;;;;;;5096827;28;20243;-72
2024/01/19 01:33:07;;;;;;;31.30;18.30;;;-1.00;99.90;;;;;;5097149;28;20531;-71
2024/01/19 01:35:33;;;;;;;31.40;19.53;;;-1.00;99.90;;;;;;5096958;28;20261;-71
2024/01/19 01:37:59;;;;;;;30.47;18.60;;;-1.10;99.90;;;;;;5097064;28;20290;-73
2024/01/19 01:40:25;;;;;;;28.73;18.07;;;-1.20;99.90;;;;;;5096780;28;20706;-72
2024/01/19 01:43:00;;;;;;;31.13;18.53;;;-1.20;99.90;;;;;;5097166;28;20172;-71
2024/01/19 01:45:26;;;;;;;26.57;16.10;;;-1.20;99.90;;;;;;5097130;28;20202;-72
2024/01/19 01:47:52;;;;;;;30.43;18.17;;;-1.20;99.90;;;;;;5096880;28;20200;-72
2024/01/19 01:50:18;;;;;;;33.97;19.13;;;-1.20;99.90;;;;;;5096626;28;20175;-73
2024/01/19 01:52:43;;;;;;;33.93;19.13;;;-1.30;99.90;;;;;;5096799;28;20258;-73
2024/01/19 01:55:10;;;;;;;28.20;17.33;;;-1.30;99.90;;;;;;5096522;28;20211;-73
2024/01/19 01:57:35;;;;;;;26.67;17.67;;;-1.20;99.90;;;;;;5096622;28;20700;-71
2024/01/19 02:00:02;;;;;;;28.30;17.10;;;-1.20;99.90;;;;;;5096620;28;20199;-71
2024/01/19 02:02:28;;;;;;;38.07;17.37;;;-1.30;99.90;;;;;;5096478;28;20522;-72
2024/01/19 02:04:54;;;;;;;31.17;16.30;;;-1.20;99.90;;;;;;5096606;28;20160;-71
2024/01/19 02:07:19;;;;;;;33.00;18.63;;;-1.20;99.90;;;;;;5096350;28;20171;-71
2024/01/19 02:09:45;;;;;;;32.87;17.70;;;-1.30;99.90;;;;;;5096181;28;20164;-72
2024/01/19 02:12:10;;;;;;;34.00;18.03;;;-1.20;99.90;;;;;;5096300;28;20168;-71
2024/01/19 02:14:36;;;;;;;28.53;17.20;;;-1.20;99.90;;;;;;5096370;28;20175;-72
2024/01/19 02:17:01;;;;;;;35.67;17.87;;;-1.10;99.90;;;;;;5096227;28;20298;-72
2024/01/19 02:19:27;;;;;;;30.67;17.93;;;-1.20;99.90;;;;;;5096266;28;20176;-73
2024/01/19 02:21:53;;;;;;;32.07;15.97;;;-1.10;99.90;;;;;;5096148;28;20229;-72
2024/01/19 02:24:19;;;;;;;30.07;17.00;;;-1.20;99.90;;;;;;5095746;28;20250;-73
2024/01/19 02:26:44;;;;;;;31.00;17.00;;;-1.20;99.90;;;;;;5096130;28;20187;-73
2024/01/19 02:29:10;;;;;;;28.73;17.27;;;-1.20;99.90;;;;;;5095915;28;20240;-72
2024/01/19 02:31:36;;;;;;;36.27;17.47;;;-1.20;99.90;;;;;;5096158;28;20191;-73
2024/01/19 02:34:01;;;;;;;54.33;17.07;;;-1.30;99.90;;;;;;5095873;28;20635;-73
2024/01/19 02:36:27;;;;;;;37.80;18.30;;;-1.30;99.90;;;;;;5095942;28;20295;-73
2024/01/19 02:38:53;;;;;;;40.80;17.13;;;-1.40;99.90;;;;;;5094261;28;20183;-73
2024/01/19 02:41:18;;;;;;;35.07;18.57;;;-1.40;99.90;;;;;;5095957;28;20183;-73
2024/01/19 02:43:44;;;;;;;59.50;20.00;;;-1.40;99.90;;;;;;5095777;28;20170;-73
2024/01/19 02:46:13;;;;;;;37.23;17.67;;;-1.50;99.90;;;;;;5095676;28;20218;-74
2024/01/19 02:48:39;;;;;;;41.20;19.00;;;-1.40;99.90;;;;;;5095618;28;20175;-73
2024/01/19 02:51:04;;;;;;;34.37;18.83;;;-1.40;99.90;;;;;;5095680;28;20190;-72
2024/01/19 02:53:30;;;;;;;59.13;18.63;;;-1.50;99.90;;;;;;5095353;28;20286;-72
2024/01/19 02:55:56;;;;;;;36.60;19.10;;;-1.50;99.90;;;;;;5095450;28;20171;-73
2024/01/19 02:58:21;;;;;;;45.63;18.77;;;-1.50;99.90;;;;;;5095145;28;20220;-73
2024/01/19 03:00:47;;;;;;;59.20;18.63;;;-1.50;99.90;;;;;;5095481;28;20160;-73
2024/01/19 03:03:12;;;;;;;94.57;20.83;;;-1.50;99.90;;;;;;5095216;28;20680;-72
2024/01/19 03:05:38;;;;;;;57.43;19.80;;;-1.40;99.90;;;;;;5095347;28;20176;-73
2024/01/19 03:08:04;;;;;;;33.77;19.13;;;-1.40;99.90;;;;;;5094943;28;20648;-73
2024/01/19 03:10:29;;;;;;;35.27;18.30;;;-1.40;99.90;;;;;;5094967;28;20195;-72
2024/01/19 03:12:55;;;;;;;36.97;19.20;;;-1.40;99.90;;;;;;5095350;28;20176;-73
2024/01/19 03:15:21;;;;;;;32.50;19.13;;;-1.40;99.90;;;;;;5095090;28;20202;-73
2024/01/19 03:17:46;;;;;;;37.43;19.33;;;-1.30;99.90;;;;;;5094918;28;20203;-73
2024/01/19 03:20:13;;;;;;;44.57;19.97;;;-1.30;99.90;;;;;;5095111;28;20176;-71
2024/01/19 03:22:38;;;;;;;45.67;20.77;;;-1.20;99.90;;;;;;5094661;28;20199;-73
2024/01/19 03:25:04;;;;;;;56.23;19.70;;;-1.20;99.90;;;;;;5094981;28;20207;-73
2024/01/19 03:27:30;;;;;;;62.87;20.50;;;-1.20;99.90;;;;;;5094810;28;20225;-73
2024/01/19 03:29:56;;;;;;;49.80;19.77;;;-1.20;99.90;;;;;;5094637;28;20227;-73
2024/01/19 03:32:21;;;;;;;47.07;19.30;;;-1.30;99.90;;;;;;5094904;28;20187;-73
2024/01/19 03:34:47;;;;;;;39.70;19.67;;;-1.40;99.90;;;;;;5094563;28;20580;-73
2024/01/19 03:37:13;;;;;;;92.20;21.07;;;-1.40;99.90;;;;;;5094290;28;20215;-72
2024/01/19 03:39:39;;;;;;;48.73;19.60;;;-1.40;99.90;;;;;;5094859;28;20575;-72
2024/01/19 03:42:04;;;;;;;44.33;20.10;;;-1.40;99.90;;;;;;5094332;28;20176;-73
2024/01/19 03:44:30;;;;;;;58.53;19.90;;;-1.50;99.90;;;;;;5094589;28;20180;-73
2024/01/19 03:46:56;;;;;;;36.83;20.30;;;-1.50;99.90;;;;;;5094459;28;20646;-74
2024/01/19 03:49:23;;;;;;;44.77;20.97;;;-1.40;99.90;;;;;;5094310;28;20187;-72
2024/01/19 03:52:02;;;;;;;40.37;19.77;;;-1.40;99.90;;;;;;5093964;28;20270;-73
2024/01/19 03:54:29;;;;;;;46.97;19.37;;;-1.40;99.90;;;;;;5094434;28;20184;-73
2024/01/19 03:56:59;;;;;;;45.53;20.63;;;-1.40;99.90;;;;;;5093961;28;20195;-73
2024/01/19 03:59:24;;;;;;;41.97;21.27;;;-1.40;99.90;;;;;;5093982;28;20184;-73
2024/01/19 04:01:51;;;;;;;37.27;21.00;;;-1.40;99.90;;;;;;5094109;28;20172;-73
2024/01/19 04:04:16;;;;;;;46.33;21.17;;;-1.40;99.90;;;;;;5093857;28;20204;-72
2024/01/19 04:06:42;;;;;;;40.53;20.70;;;-1.40;99.90;;;;;;5094023;28;20175;-73
2024/01/19 04:09:08;;;;;;;44.53;20.10;;;-1.30;99.90;;;;;;5094072;28;20167;-73
2024/01/19 04:11:34;;;;;;;47.50;22.60;;;-1.30;99.90;;;;;;5093740;28;20176;-72
2024/01/19 04:14:00;;;;;;;42.70;20.70;;;-1.20;99.90;;;;;;5093832;28;20172;-73
2024/01/19 04:16:26;;;;;;;38.87;20.10;;;-1.20;99.90;;;;;;5093728;28;20194;-73
2024/01/19 04:18:51;;;;;;;35.47;18.53;;;-1.20;99.90;;;;;;5093353;28;20646;-72
2024/01/19 04:21:17;;;;;;;41.40;21.40;;;-1.30;99.90;;;;;;5093621;28;20168;-72
2024/01/19 04:23:44;;;;;;;38.87;21.53;;;-1.20;99.90;;;;;;5093505;28;20183;-72
2024/01/19 04:26:10;;;;;;;43.50;21.77;;;-1.20;99.90;;;;;;5093771;28;20611;-72
2024/01/19 04:28:36;;;;;;;40.60;22.23;;;-1.20;99.90;;;;;;5093514;28;20183;-72
2024/01/19 04:31:01;;;;;;;44.27;22.80;;;-1.30;99.90;;;;;;5093284;28;20211;-72
2024/01/19 04:33:27;;;;;;;39.67;22.30;;;-1.20;99.90;;;;;;5093217;28;20168;-72
2024/01/19 04:35:53;;;;;;;44.80;22.87;;;-1.10;99.90;;;;;;5093407;28;20619;-71
2024/01/19 04:38:18;;;;;;;41.07;21.70;;;-1.00;99.90;;;;;;5093348;28;20299;-71
2024/01/19 04:40:44;;;;;;;45.50;22.10;;;-1.00;99.90;;;;;;5093362;28;20168;-70
2024/01/19 04:43:09;;;;;;;43.33;21.97;;;-1.10;99.90;;;;;;5093416;28;20179;-73
2024/01/19 04:45:35;;;;;;;44.37;22.43;;;-1.10;99.90;;;;;;5093182;28;20176;-72
2024/01/19 04:48:00;;;;;;;41.33;21.60;;;-1.10;99.90;;;;;;5093062;28;20255;-73
2024/01/19 04:50:26;;;;;;;38.03;20.77;;;-1.10;99.90;;;;;;5093478;28;20163;-72
2024/01/19 04:52:51;;;;;;;47.83;22.53;;;-1.10;99.90;;;;;;5093382;28;20623;-72
2024/01/19 04:55:18;;;;;;;40.53;21.20;;;-1.10;99.90;;;;;;5093198;28;20168;-72
2024/01/19 04:57:45;;;;;;;48.80;23.57;;;-1.10;99.90;;;;;;5093029;28;20550;-72
2024/01/19 05:00:12;;;;;;;47.30;23.27;;;-1.10;99.90;;;;;;5092922;28;20164;-71
2024/01/19 05:02:37;;;;;;;40.83;22.03;;;-1.20;99.90;;;;;;5092475;28;20234;-72
2024/01/19 05:05:03;;;;;;;39.67;22.57;;;-1.10;99.90;;;;;;5092840;28;20175;-72
2024/01/19 05:07:29;;;;;;;41.93;22.40;;;-1.10;99.90;;;;;;5092830;28;20531;-71
2024/01/19 05:09:54;;;;;;;41.87;22.40;;;-1.20;99.90;;;;;;5092949;28;20653;-72
2024/01/19 05:12:20;;;;;;;45.30;22.80;;;-1.10;99.90;;;;;;5092948;28;20171;-73
2024/01/19 05:14:46;;;;;;;41.97;22.93;;;-1.20;99.90;;;;;;5092786;28;20263;-72
2024/01/19 05:17:12;;;;;;;47.90;23.60;;;-1.10;99.90;;;;;;5092589;28;20242;-72
2024/01/19 05:19:37;;;;;;;49.13;23.97;;;-0.90;99.90;;;;;;5092681;28;20240;-71
2024/01/19 05:22:03;;;;;;;47.27;23.30;;;-1.00;99.90;;;;;;5092707;28;20592;-73
2024/01/19 05:24:29;;;;;;;54.80;23.53;;;-1.00;99.90;;;;;;5092974;28;20241;-74
2024/01/19 05:26:54;;;;;;;57.27;23.60;;;-1.10;99.90;;;;;;5092641;28;20179;-72
2024/01/19 05:29:21;;;;;;;49.13;24.33;;;-1.20;99.90;;;;;;5092762;28;20697;-72
2024/01/19 05:31:46;;;;;;;43.23;23.13;;;-1.20;99.90;;;;;;5091246;28;20198;-73
2024/01/19 05:34:12;;;;;;;47.80;25.10;;;-1.20;99.90;;;;;;5092664;28;20702;-73
2024/01/19 05:36:38;;;;;;;46.13;23.67;;;-1.10;99.90;;;;;;5092531;28;20243;-72
2024/01/19 05:39:04;;;;;;;46.70;23.50;;;-1.00;99.90;;;;;;5092932;28;20176;-72
2024/01/19 05:41:30;;;;;;;46.33;23.67;;;-1.10;99.90;;;;;;5092540;28;20623;-72
2024/01/19 05:43:55;;;;;;;49.47;23.90;;;-1.10;99.90;;;;;;5092637;28;20172;-72
2024/01/19 05:46:21;;;;;;;43.47;23.67;;;-1.20;99.90;;;;;;5092225;28;20740;-72
2024/01/19 05:48:46;;;;;;;47.70;24.87;;;-1.10;99.90;;;;;;5092275;28;20179;-73
2024/01/19 05:51:16;;;;;;;46.87;24.87;;;-1.20;99.90;;;;;;5092400;28;20156;-73
2024/01/19 05:53:42;;;;;;;48.27;24.67;;;-1.10;99.90;;;;;;5092283;28;20174;-72
2024/01/19 05:56:08;;;;;;;50.13;24.93;;;-1.20;99.90;;;;;;5092013;28;20171;-72
2024/01/19 05:58:33;;;;;;;52.00;24.50;;;-1.20;99.90;;;;;;5092697;28;20215;-72
2024/01/19 06:01:02;;;;;;;47.47;25.17;;;-1.20;99.90;;;;;;5091935;28;20213;-73
2024/01/19 06:03:28;;;;;;;46.77;24.43;;;-1.30;99.90;;;;;;5092531;28;20171;-71
2024/01/19 06:05:53;;;;;;;48.57;24.53;;;-1.20;99.90;;;;;;5092712;28;20514;-72
2024/01/19 06:08:19;;;;;;;51.53;25.87;;;-1.20;99.90;;;;;;5092132;28;20254;-72
2024/01/19 06:10:44;;;;;;;49.27;24.77;;;-1.30;99.90;;;;;;5091467;28;20176;-73
2024/01/19 06:13:11;;;;;;;54.13;25.73;;;-1.30;99.90;;;;;;5093007;28;20178;-72
2024/01/19 06:15:37;;;;;;;54.37;26.13;;;-1.20;99.90;;;;;;5095185;28;20184;-72
2024/01/19 06:18:02;;;;;;;53.70;26.07;;;-1.30;99.90;;;;;;5095501;28;20250;-72
2024/01/19 06:20:28;;;;;;;46.47;24.23;;;-1.30;99.90;;;;;;5095973;28;20225;-72
2024/01/19 06:22:53;;;;;;;53.93;29.20;;;-1.30;99.90;;;;;;5095393;28;20179;-72
2024/01/19 06:25:19;;;;;;;52.83;26.37;;;-1.40;99.90;;;;;;5093801;28;20183;-72
2024/01/19 06:27:45;;;;;;;54.73;26.47;;;-1.30;99.90;;;;;;5094980;28;20251;-73
2024/01/19 06:30:11;;;;;;;53.20;27.07;;;-1.30;99.90;;;;;;5094798;28;20642;-73
2024/01/19 06:32:36;;;;;;;50.70;27.13;;;-1.30;99.90;;;;;;5095176;28;20552;-72
2024/01/19 06:35:03;;;;;;;48.97;25.37;;;-1.30;99.90;;;;;;5094862;28;20168;-72
2024/01/19 06:37:28;;;;;;;57.73;26.83;;;-1.20;99.90;;;;;;5094786;28;20200;-73
2024/01/19 06:39:54;;;;;;;58.30;27.53;;;-1.20;99.90;;;;;;5094489;28;20261;-71
2024/01/19 06:42:20;;;;;;;51.93;26.33;;;-1.30;99.90;;;;;;5094653;28;20175;-73
2024/01/19 06:44:46;;;;;;;59.37;27.37;;;-1.20;99.90;;;;;;5094528;28;20175;-71
2024/01/19 06:47:11;;;;;;;63.20;28.67;;;-1.20;99.90;;;;;;5094913;28;20508;-73
2024/01/19 06:49:37;;;;;;;59.10;29.50;;;-1.20;99.90;;;;;;5094556;28;20266;-72
2024/01/19 06:52:06;;;;;;;58.10;27.53;;;-1.20;99.90;;;;;;5094767;28;20263;-72
2024/01/19 06:54:32;;;;;;;54.93;26.43;;;-1.00;99.90;;;;;;5094998;28;20167;-72
2024/01/19 06:56:58;;;;;;;52.33;25.87;;;-1.30;99.90;;;;;;5094594;28;20596;-73
2024/01/19 06:59:25;;;;;;;54.53;26.67;;;-1.40;99.90;;;;;;5093786;28;20190;-72
2024/01/19 07:01:50;;;;;;;57.90;27.63;;;-1.40;99.90;;;;;;5094078;28;20211;-72
2024/01/19 07:04:16;;;;;;;58.27;27.03;;;-1.30;99.90;;;;;;5095068;28;20179;-71
2024/01/19 07:06:42;;;;;;;59.23;27.50;;;-1.40;99.90;;;;;;5094606;28;20180;-74
2024/01/19 07:09:08;;;;;;;52.57;26.33;;;-1.50;99.90;;;;;;5094642;28;20363;-72
2024/01/19 07:11:36;;;;;;;57.03;26.63;;;-1.50;99.90;;;;;;5094359;28;20176;-73
2024/01/19 07:14:02;;;;;;;50.83;25.93;;;-1.50;99.90;;;;;;5093026;28;20560;-72
2024/01/19 07:16:27;;;;;;;54.93;26.70;;;-1.40;99.90;;;;;;5094458;28;20187;-74
2024/01/19 07:18:53;;;;;;;58.13;26.63;;;-1.40;99.90;;;;;;5094303;28;20176;-72
2024/01/19 07:21:18;;;;;;;56.13;26.93;;;-1.50;99.90;;;;;;5085016;28;20176;-72
2024/01/19 07:23:44;;;;;;;57.90;25.17;;;-1.50;99.90;;;;;;5094948;28;20661;-70
2024/01/19 07:26:10;;;;;;;58.63;28.10;;;-1.50;99.90;;;;;;5075867;28;20699;-71
2024/01/19 07:28:35;;;;;;;60.07;28.00;;;-1.50;99.90;;;;;;5087067;28;20172;-72
2024/01/19 07:31:01;;;;;;;54.40;27.17;;;-1.50;99.90;;;;;;5085645;28;20709;-71
2024/01/19 07:33:28;;;;;;;55.23;28.40;;;-1.50;99.90;;;;;;5082539;28;20173;-73
2024/01/19 07:35:54;;;;;;;56.20;27.27;;;-1.40;99.90;;;;;;5072304;28;20263;-73
2024/01/19 07:38:20;;;;;;;62.67;29.23;;;-1.40;99.90;;;;;;5074293;28;20578;-72
2024/01/19 07:40:46;;;;;;;56.83;28.17;;;-1.40;99.90;;;;;;5075751;28;20267;-71
2024/01/19 07:43:12;;;;;;;59.97;27.13;;;-1.40;99.90;;;;;;5080946;28;20269;-72
2024/01/19 07:45:37;;;;;;;54.50;28.43;;;-1.40;99.90;;;;;;5077677;28;20259;-73
2024/01/19 07:48:03;;;;;;;48.40;27.17;;;-1.40;99.90;;;;;;5076052;28;20259;-71
2024/01/19 07:50:29;;;;;;;61.60;29.73;;;-1.40;99.90;;;;;;5072637;28;20184;-71
2024/01/19 07:52:55;;;;;;;58.47;29.57;;;-1.30;99.90;;;;;;5083335;28;20172;-72
2024/01/19 07:55:20;;;;;;;55.83;30.70;;;-1.40;99.90;;;;;;5080086;28;20190;-73
2024/01/19 07:57:46;;;;;;;59.00;29.47;;;-1.30;99.90;;;;;;5073146;28;20273;-73
2024/01/19 08:00:12;;;;;;;61.57;28.97;;;-1.30;99.90;;;;;;5081095;28;20186;-73
2024/01/19 08:02:40;;;;;;;54.87;28.73;;;-1.20;99.90;;;;;;5086832;28;20184;-71
2024/01/19 08:05:05;;;;;;;54.90;29.57;;;-1.20;99.90;;;;;;5074815;28;20484;-72
2024/01/19 08:07:31;;;;;;;52.23;27.97;;;-1.20;99.90;;;;;;5071492;28;20324;-72
2024/01/19 08:09:57;;;;;;;55.27;28.87;;;-1.20;99.90;;;;;;5070978;28;20169;-73
2024/01/19 08:12:23;;;;;;;59.90;28.97;;;-1.30;99.90;;;;;;5073483;28;20184;-75
2024/01/19 08:14:50;;;;;;;58.87;29.80;;;-1.30;99.90;;;;;;5075040;28;20195;-72
2024/01/19 08:17:16;;;;;;;61.63;29.60;;;-1.20;99.90;;;;;;5078570;28;20211;-73
2024/01/19 08:19:41;;;;;;;62.97;29.73;;;-1.20;99.90;;;;;;5085167;28;20285;-73
2024/01/19 08:22:07;;;;;;;52.03;28.57;;;-1.10;99.90;;;;;;5071050;28;20184;-73
2024/01/19 08:24:36;;;;;;;58.03;26.83;;;-1.10;99.90;;;;;;5071803;28;20195;-74
2024/01/19 08:27:02;;;;;;;59.40;29.60;;;-1.10;99.90;;;;;;5075391;28;20199;-73
2024/01/19 08:29:27;;;;;;;55.23;27.90;;;-1.00;99.90;;;;;;5073966;28;20663;-73
2024/01/19 08:31:53;;;;;;;55.83;28.97;;;-1.00;99.90;;;;;;5069635;28;20188;-72
2024/01/19 08:34:18;;;;;;;49.27;27.63;;;-0.90;99.90;;;;;;5086658;28;20172;-71
2024/01/19 08:36:44;;;;;;;55.07;27.83;;;-0.70;99.90;;;;;;5091385;28;20288;-72
2024/01/19 08:39:09;;;;;;;49.17;28.73;;;-0.70;99.90;;;;;;5088938;28;20183;-72
2024/01/19 08:41:44;;;;;;;51.57;27.73;;;-0.50;99.90;;;;;;5095185;28;20176;-73
2024/01/19 08:44:10;;;;;;;53.47;28.50;;;-0.50;99.90;;;;;;5072545;28;20229;-73
2024/01/19 08:46:46;;;;;;;48.30;27.93;;;-0.60;99.90;;;;;;5079282;28;20180;-73
2024/01/19 08:49:12;;;;;;;53.40;29.80;;;-0.50;99.90;;;;;;5074936;28;20197;-72
2024/01/19 08:51:38;;;;;;;55.03;30.17;;;-0.30;99.90;;;;;;5074020;28;20681;-72
2024/01/19 08:54:04;;;;;;;49.17;28.23;;;0.10;99.90;;;;;;5086492;28;20176;-71
2024/01/19 08:56:31;;;;;;;61.70;28.97;;;0.40;99.90;;;;;;5086496;28;20175;-71
2024/01/19 08:58:59;;;;;;;57.03;30.43;;;0.40;99.90;;;;;;5077366;28;20216;-71
2024/01/19 09:01:26;;;;;;;51.07;27.37;;;0.70;99.90;;;;;;5083689;28;20180;-71
2024/01/19 09:03:52;;;;;;;51.70;27.53;;;1.10;99.90;;;;;;5072839;28;20180;-72
2024/01/19 09:06:17;;;;;;;48.63;26.40;;;1.50;99.90;;;;;;5089183;28;20180;-71
2024/01/19 09:08:43;;;;;;;46.77;26.53;;;1.80;99.90;;;;;;5080586;28;20254;-70
2024/01/19 09:11:10;;;;;;;38.67;24.53;;;2.20;99.90;;;;;;5091479;28;20175;-70
2024/01/19 09:13:37;;;;;;;44.37;24.67;;;2.50;99.90;;;;;;5071220;28;20208;-70
2024/01/19 09:16:08;;;;;;;41.43;24.43;;;2.80;99.90;;;;;;5071521;28;20628;-70
2024/01/19 09:18:38;;;;;;;38.73;23.83;;;3.40;99.90;;;;;;5079545;28;20207;-71
2024/01/19 09:21:04;;;;;;;36.87;21.97;;;3.50;99.90;;;;;;5072529;28;20188;-70
2024/01/19 09:23:30;;;;;;;36.97;22.13;;;4.10;99.90;;;;;;5080560;28;20190;-71
2024/01/19 09:25:56;;;;;;;38.13;24.37;;;4.30;99.90;;;;;;5076331;28;20556;-71
2024/01/19 09:28:22;;;;;;;40.73;22.13;;;5.00;99.90;;;;;;5086092;28;20258;-69
2024/01/19 09:30:47;;;;;;;34.33;21.37;;;5.50;99.90;;;;;;5090384;28;20219;-73
2024/01/19 09:33:16;;;;;;;38.17;21.43;;;5.20;99.90;;;;;;5075539;28;20715;-71
2024/01/19 09:35:42;;;;;;;32.73;20.37;;;5.10;99.90;;;;;;5071283;28;20169;-71
2024/01/19 09:38:07;;;;;;;36.27;20.77;;;5.30;99.90;;;;;;5071838;28;20216;-70
2024/01/19 09:40:33;;;;;;;33.13;20.57;;;5.70;99.90;;;;;;5081689;28;20226;-71
2024/01/19 09:42:59;;;;;;;30.47;19.43;;;5.90;99.90;;;;;;5083728;28;20185;-70
2024/01/19 09:45:47;;;;;;;27.07;19.83;;;6.20;99.90;;;;;;5074858;28;20635;-70
2024/01/19 09:48:24;;;;;;;31.80;19.33;;;6.40;99.90;;;;;;5073417;28;20191;-70
2024/01/19 09:50:52;;;;;;;30.50;19.37;;;6.90;99.90;;;;;;5076408;28;20239;-69
2024/01/19 09:53:46;;;;;;;33.40;20.03;;;7.20;99.90;;;;;;5077281;28;20175;-69
2024/01/19 09:56:12;;;;;;;31.10;19.20;;;7.50;99.40;;;;;;5090673;28;20259;-69
2024/01/19 09:58:38;;;;;;;28.87;19.83;;;7.40;99.90;;;;;;5079848;28;20224;-71
2024/01/19 10:01:04;;;;;;;25.37;18.70;;;7.90;98.70;;;;;;5078322;28;20319;-77
2024/01/19 10:03:29;;;;;;;25.90;18.93;;;8.50;97.70;;;;;;5082754;28;20250;-70
2024/01/19 10:05:55;;;;;;;26.90;17.97;;;8.10;96.10;;;;;;5074325;28;20267;-75
2024/01/19 10:08:21;;;;;;;29.70;18.97;;;7.50;97.80;;;;;;5074482;28;20200;-70
2024/01/19 10:10:49;;;;;;;27.00;19.80;;;7.90;98.00;;;;;;5080768;28;20639;-71
2024/01/19 10:13:15;;;;;;;30.13;18.80;;;7.90;98.30;;;;;;5075311;28;20279;-71
2024/01/19 10:15:43;;;;;;;25.73;18.20;;;7.80;96.90;;;;;;5074784;28;20270;-70
2024/01/19 10:18:10;;;;;;;27.47;18.40;;;7.90;97.00;;;;;;5074062;28;20231;-70
2024/01/19 10:20:38;;;;;;;30.13;18.37;;;8.60;96.90;;;;;;5082133;28;20206;-71
2024/01/19 10:23:22;;;;;;;29.53;19.33;;;8.70;96.00;;;;;;5075755;28;20213;-70
2024/01/19 10:25:48;;;;;;;31.87;19.63;;;9.00;95.20;;;;;;5075652;28;20219;-70
2024/01/19 10:28:29;;;;;;;33.23;19.13;;;9.00;94.90;;;;;;5085726;28;20172;-70
2024/01/19 10:31:14;;;;;;;27.27;18.70;;;9.40;94.90;;;;;;5075133;28;20247;-71
2024/01/19 10:33:57;;;;;;;31.83;19.10;;;9.30;93.90;;;;;;5080430;28;20171;-71
2024/01/19 10:36:23;;;;;;;31.17;20.33;;;9.60;92.70;;;;;;5085933;28;20171;-71
2024/01/19 10:38:49;;;;;;;34.70;19.63;;;9.80;92.40;;;;;;5086177;28;20650;-71
2024/01/19 10:41:16;;;;;;;25.13;17.87;;;9.80;91.90;;;;;;5083103;28;20176;-69
2024/01/19 10:43:42;;;;;;;38.40;19.53;;;9.80;92.00;;;;;;5074951;28;20266;-69
2024/01/19 10:46:22;;;;;;;28.50;18.70;;;9.80;91.40;;;;;;5083218;28;20180;-69
2024/01/19 10:48:50;;;;;;;29.67;18.20;;;9.30;92.60;;;;;;5082039;28;20261;-70
2024/01/19 10:51:17;;;;;;;27.60;18.33;;;8.70;95.10;;;;;;5094991;27;20734;-69
2024/01/19 10:53:43;;;;;;;25.73;17.53;;;8.60;95.70;;;;;;5086204;28;20271;-71
2024/01/19 10:56:09;;;;;;;31.00;18.13;;;8.60;95.40;;;;;;5074084;28;20226;-70
2024/01/19 10:58:34;;;;;;;28.60;19.50;;;9.10;94.80;;;;;;5075341;28;20235;-71
2024/01/19 11:01:17;;;;;;;31.03;17.90;;;8.70;94.40;;;;;;5078590;28;20204;-71
2024/01/19 11:03:43;;;;;;;25.17;17.80;;;9.00;93.20;;;;;;5085119;28;20279;-70
2024/01/19 11:06:09;;;;;;;23.00;16.40;;;8.30;94.70;;;;;;5081312;28;20188;-71
2024/01/19 11:08:36;;;;;;;21.93;16.63;;;8.40;96.00;;;;;;5073261;28;20193;-71
2024/01/19 11:11:04;;;;;;;27.33;17.43;;;8.10;96.90;;;;;;5074606;28;20196;-71
2024/01/19 11:13:35;;;;;;;23.33;16.77;;;8.70;95.70;;;;;;5074234;28;20176;-71
2024/01/19 11:16:06;;;;;;;26.50;17.43;;;8.90;94.70;;;;;;5073168;28;20185;-71
2024/01/19 11:18:31;;;;;;;22.40;15.33;;;8.40;95.80;;;;;;5074124;28;20207;-70
2024/01/19 11:20:58;;;;;;;27.40;16.73;;;8.00;96.90;;;;;;5080384;28;20179;-71
2024/01/19 11:23:24;;;;;;;27.33;17.23;;;8.10;96.80;;;;;;5073281;28;20212;-69
2024/01/19 11:26:09;;;;;;;24.67;17.20;;;8.30;97.50;;;;;;5074777;28;20705;-72
2024/01/19 11:29:02;;;;;;;24.53;16.33;;;8.50;95.90;;;;;;5080189;28;20268;-71
2024/01/19 11:31:34;;;;;;;22.03;15.80;;;8.30;96.60;;;;;;5082098;28;20216;-71
2024/01/19 11:34:00;;;;;;;21.83;16.00;;;7.50;97.30;;;;;;5072516;28;20168;-71
2024/01/19 11:36:38;;;;;;;31.63;17.53;;;7.30;98.20;;;;;;5086400;28;20180;-70
2024/01/19 11:39:07;;;;;;;29.17;17.30;;;7.50;99.20;;;;;;5093426;28;20210;-71
2024/01/19 11:41:33;;;;;;;27.73;17.67;;;7.50;99.00;;;;;;5087246;28;20263;-70
2024/01/19 11:44:00;;;;;;;25.83;16.80;;;7.40;99.20;;;;;;5072171;28;20184;-71
2024/01/19 11:46:45;;;;;;;42.47;18.10;;;7.50;99.10;;;;;;5076599;28;20187;-71
2024/01/19 11:49:29;;;;;;;29.77;17.33;;;7.60;98.20;;;;;;5088392;28;20207;-71
2024/01/19 11:51:56;;;;;;;44.60;19.33;;;7.80;98.70;;;;;;5072745;28;20176;-70
2024/01/19 11:54:32;;;;;;;41.27;18.50;;;7.60;99.00;;;;;;5072607;28;20181;-69
2024/01/19 11:57:17;;;;;;;41.60;17.73;;;7.30;99.70;;;;;;5072613;28;20663;-70
2024/01/19 11:59:44;;;;;;;44.40;18.67;;;7.30;99.90;;;;;;5092369;28;20675;-70
2024/01/19 12:02:34;;;;;;;44.17;19.00;;;7.40;99.80;;;;;;5092720;28;20631;-70
2024/01/19 12:05:02;;;;;;;51.60;19.03;;;7.50;99.10;;;;;;5071988;28;20184;-70
2024/01/19 12:07:28;;;;;;;31.90;17.33;;;7.70;99.20;;;;;;5072380;28;20165;-70
2024/01/19 12:10:18;;;;;;;27.27;17.33;;;7.80;98.80;;;;;;5078224;28;20175;-70
2024/01/19 12:12:43;;;;;;;30.40;16.40;;;8.10;98.80;;;;;;5088082;28;20184;-69
2024/01/19 12:15:10;;;;;;;27.57;16.13;;;8.30;97.90;;;;;;5090594;28;20183;-70
2024/01/19 12:17:40;;;;;;;25.10;16.00;;;8.00;98.40;;;;;;5092238;28;20302;-69
2024/01/19 12:20:09;;;;;;;24.33;17.00;;;7.80;98.30;;;;;;5092216;28;20573;-70
2024/01/19 12:22:35;;;;;;;26.90;16.77;;;7.20;99.20;;;;;;5082750;28;20647;-70
2024/01/19 12:25:17;;;;;;;26.37;17.10;;;6.80;99.90;;;;;;5076063;28;20226;-70
2024/01/19 12:27:43;;;;;;;26.17;16.73;;;6.70;99.90;;;;;;5084062;28;20197;-70
2024/01/19 12:30:19;;;;;;;26.63;17.13;;;7.00;99.90;;;;;;5092107;28;20334;-69